ADDS METAR Data INFO
IDs: Format: Raw Decoded Include TAF

Data at: 0340 UTC 19 Feb 2018

KLEE 190253Z AUTO 09006KT 10SM CLR 21/19 A3028 RMK AO2 SLP251 T02110189 51014
KLEE 190153Z AUTO 09007KT 10SM CLR 22/18 A3027 RMK AO2 SLP250 T02170178
KLEE 190053Z AUTO 10011KT 10SM CLR 23/17 A3026 RMK AO2 SLP245 T02280172
KLEE 182353Z AUTO 08007KT 10SM CLR 23/17 A3024 RMK AO2 SLP237 T02330167 10283 20233 53012
KLEE 182253Z 06011G17KT 10SM CLR 27/13 A3022 RMK AO2 SLP231 T02720133
KLEE 182153Z 06008KT 10SM CLR 28/13 A3020 RMK AO2 SLP226 T02830133
KLEE 182053Z 00000KT 10SM CLR 28/13 A3020 RMK AO2 SLP225 T02780128 56013
KLEE 181953Z 15005KT 10SM CLR 27/15 A3020 RMK AO2 SLP225 T02720150
KLEE 181853Z 14004KT 10SM CLR 26/16 A3022 RMK AO2 SLP231 T02610156
KLEE 181753Z VRB03KT 10SM CLR 26/16 A3024 RMK AO2 SLP238 T02560156 10261 20161 58014
KLEE 181653Z 17004KT 10SM CLR 23/19 A3027 RMK AO2 SLP248 T02330189
KLEE 181553Z 25003KT 10SM FEW006 21/18 A3028 RMK AO2 SLP253 T02110183
KLEE 181542Z 00000KT 10SM SCT005 22/19 A3028 RMK AO2 T02170189
KLEE 181524Z 34003KT 10SM FG OVC005 21/19 A3028 RMK AO2 T02110189
KLEE 181453Z 32005KT 4SM FG OVC003 19/19 A3028 RMK AO2 SLP252 T01940189 51022
KLEE 181434Z 01004KT 3SM FG OVC002 18/18 A3028 RMK AO2 T01830183
KLEE 181416Z 36007KT 1 1/4SM FG OVC002 19/19 A3027 RMK AO2 T01890189
KLEE 181353Z 01005KT 1/4SM FG VV002 18/18 A3026 RMK AO2 SLP245 T01830183
KLEE 181253Z 00000KT 1/4SM FG VV002 18/18 A3024 RMK AO2 SLP237 T01780178
KLEE 181218Z 00000KT 1/2SM FG OVC003 17/17 A3022 RMK AO2 T01720172
KLEE 181153Z 00000KT 3SM BR BKN003 16/16 A3021 RMK AO2 SLP230 T01610161 10178 20161 53008
KLEE 181053Z AUTO 15005KT 10SM CLR 18/18 A3019 RMK AO2 SLP223 T01780178
KLEE 181040Z AUTO 16006KT 3SM BR SCT002 17/17 A3019 RMK AO2 T01720167
KLEE 181032Z AUTO 18003KT 1 1/4SM BR SCT002 17/17 A3019 RMK AO2 T01720167
KLEE 180953Z AUTO 18003KT 1/4SM FG VV002 17/17 A3019 RMK AO2 SLP221 T01720172
KLEE 180853Z AUTO 19003KT 1/4SM FG VV002 17/17 A3019 RMK AO2 SLP222 T01720172 58005
KLEE 180753Z AUTO 00000KT 1/4SM FG VV002 17/17 A3020 RMK AO2 SLP226 T01720172
KLEE 180653Z AUTO 19003KT 1/2SM FG VV002 17/17 A3019 RMK AO2 SLP223 T01670167
KLEE 180553Z AUTO 00000KT 1/4SM FG VV002 18/18 A3021 RMK AO2 SLP227 T01780178 10239 20167 56009
KLEE 180523Z AUTO 00000KT 1/4SM FG VV002 18/18 A3021 RMK AO2 T01830178
KLEE 180514Z AUTO 29003KT 1 3/4SM BR BKN002 18/18 A3021 RMK AO2 T01780178
KLEE 180506Z AUTO 00000KT 10SM BKN004 18/18 A3021 RMK AO2 T01830178
KLEE 180453Z AUTO 00000KT 10SM FEW005 17/17 A3021 RMK AO2 SLP230 T01720167 402830167
KLEE 180353Z AUTO 00000KT 10SM CLR 17/16 A3022 RMK AO2 SLP232 T01720161
KLEE 180253Z AUTO 00000KT 10SM CLR 19/16 A3023 RMK AO2 SLP236 T01940161 51009
KLEE 180153Z AUTO 28005KT 10SM CLR 21/16 A3023 RMK AO2 SLP234 T02110156
KLEE 180053Z AUTO 29006KT 10SM CLR 22/14 A3022 RMK AO2 SLP232 T02220144
KLEE 172353Z AUTO 28006KT 10SM CLR 23/14 A3020 RMK AO2 SLP227 T02330139 10283 20233 52016
KLEE 172253Z 28009KT 10SM FEW055 26/18 A3019 RMK AO2 SLP222 T02560178
KLEE 172153Z 28009KT 10SM SCT060 27/19 A3017 RMK AO2 SLP216 T02720189
KLEE 172053Z 25008KT 10SM CLR 28/15 A3016 RMK AO2 SLP211 T02830150 55003
KLEE 171953Z VRB03KT 10SM CLR 27/18 A3015 RMK AO2 SLP208 T02670178
KLEE 171853Z VRB04KT 10SM FEW029 SCT037 BKN046 26/19 A3016 RMK AO2 SLP212 T02610189
KLEE 171848Z 00000KT 10SM SCT030 SCT037 BKN044 26/19 A3017 RMK AO2
KLEE 171824Z 00000KT 10SM BKN028 24/19 A3017 RMK AO2 T02440189
KLEE 171753Z 00000KT 10SM SCT009 24/19 A3019 RMK AO2 SLP221 T02390194 10244 20183 58016
KLEE 171727Z 00000KT 10SM SCT009 23/20 A3021 RMK AO2 T02280200
KLEE 171719Z VRB04KT 10SM BKN009 22/19 A3021 RMK AO2 T02220194
KLEE 171702Z VRB04KT 10SM OVC007 21/19 A3022 RMK AO2 CIG 004V010 T02110194
KLEE 171653Z 19006KT 10SM BKN004 OVC009 21/19 A3022 RMK AO2 CIG 003V008 SLP234 T02110194
KLEE 171553Z 00000KT 3SM BR OVC004 20/19 A3024 RMK AO2 SLP238 T02000194